createdAt,value
2022-11-29T00:01:51.919Z,18.00
2022-11-29T00:04:22.509Z,17.10
2022-11-29T00:06:52.992Z,18.20
2022-11-29T00:09:23.382Z,18.70
2022-11-29T00:12:11.387Z,17.90
2022-11-29T00:14:42.657Z,17.70
2022-11-29T00:17:13.386Z,17.80
2022-11-29T00:19:45.120Z,17.30
2022-11-29T00:22:15.881Z,17.80
2022-11-29T00:24:46.537Z,16.90
2022-11-29T00:27:17.249Z,17.00
2022-11-29T00:29:48.139Z,16.00
2022-11-29T00:32:18.917Z,14.70
2022-11-29T00:34:49.575Z,16.50
2022-11-29T00:37:20.302Z,14.20
2022-11-29T00:39:50.880Z,14.90
2022-11-29T00:42:21.504Z,13.90
2022-11-29T00:44:52.118Z,14.20
2022-11-29T00:47:22.641Z,15.70
2022-11-29T00:49:53.132Z,14.60
2022-11-29T00:52:23.611Z,14.20
2022-11-29T00:54:53.978Z,14.10
2022-11-29T00:57:24.375Z,13.90
2022-11-29T00:59:54.851Z,15.00
2022-11-29T01:02:25.218Z,14.80
2022-11-29T01:04:55.652Z,14.90
2022-11-29T01:07:26.085Z,13.20
2022-11-29T01:09:56.582Z,14.60
2022-11-29T01:12:27.465Z,15.10
2022-11-29T01:14:58.956Z,14.50
2022-11-29T01:17:29.445Z,14.30
2022-11-29T01:19:59.962Z,15.20
2022-11-29T01:22:30.432Z,14.00
2022-11-29T01:25:01.125Z,15.30
2022-11-29T01:27:31.756Z,13.70
2022-11-29T01:30:02.438Z,14.10
2022-11-29T01:32:33.352Z,13.60
2022-11-29T01:35:04.322Z,14.50
2022-11-29T01:37:35.143Z,14.50
2022-11-29T01:40:08.367Z,13.40
2022-11-29T01:42:38.741Z,14.40
2022-11-29T01:45:23.638Z,15.20
2022-11-29T01:47:56.396Z,14.70
2022-11-29T01:50:27.231Z,15.20
2022-11-29T01:52:57.616Z,15.30
2022-11-29T01:55:27.995Z,15.10
2022-11-29T01:57:58.614Z,15.00
2022-11-29T02:00:29.613Z,15.60
2022-11-29T02:03:03.335Z,15.60
2022-11-29T02:05:35.333Z,15.10
2022-11-29T02:08:06.947Z,14.70
2022-11-29T02:10:45.533Z,14.50
2022-11-29T02:13:23.675Z,14.00
2022-11-29T02:15:58.436Z,13.50
2022-11-29T02:18:38.077Z,14.30
2022-11-29T02:21:26.357Z,12.90
2022-11-29T02:24:41.570Z,13.40
2022-11-29T02:27:46.859Z,12.70
2022-11-29T02:30:22.129Z,11.90
2022-11-29T02:33:23.082Z,12.20
2022-11-29T02:36:04.616Z,12.50
2022-11-29T02:38:53.000Z,11.90
2022-11-29T02:41:35.902Z,11.40
2022-11-29T02:44:26.419Z,10.90
2022-11-29T02:47:06.987Z,11.50
2022-11-29T02:49:48.203Z,11.40
2022-11-29T02:52:22.203Z,13.20
2022-11-29T02:54:56.518Z,14.10
2022-11-29T02:57:31.003Z,12.90
2022-11-29T03:00:06.689Z,11.80
2022-11-29T03:02:41.716Z,13.00
2022-11-29T03:05:18.677Z,12.90
2022-11-29T03:07:55.714Z,13.00
2022-11-29T03:10:33.561Z,12.70
2022-11-29T03:13:09.048Z,12.90
2022-11-29T03:15:45.850Z,12.40
2022-11-29T03:18:28.484Z,12.30
2022-11-29T03:21:08.792Z,12.90
2022-11-29T03:23:43.383Z,12.20
2022-11-29T03:26:18.724Z,13.00
2022-11-29T03:28:54.946Z,14.40
2022-11-29T03:31:30.278Z,13.70
2022-11-29T03:34:09.178Z,14.00
2022-11-29T03:36:45.555Z,13.70
2022-11-29T03:39:22.237Z,12.20
2022-11-29T03:41:56.667Z,14.20
2022-11-29T03:44:32.167Z,13.20
2022-11-29T03:47:06.009Z,13.10
2022-11-29T03:49:38.936Z,12.40
2022-11-29T03:54:47.981Z,10.70
2022-11-29T03:57:23.175Z,11.40
2022-11-29T04:00:01.737Z,11.70
2022-11-29T04:03:06.344Z,11.50
2022-11-29T04:06:05.860Z,12.40
2022-11-29T04:09:02.765Z,13.70
2022-11-29T04:11:55.695Z,14.20
2022-11-29T04:14:40.324Z,14.70
2022-11-29T04:17:30.932Z,13.50
2022-11-29T04:20:18.018Z,14.20
2022-11-29T04:23:34.009Z,14.30
2022-11-29T04:26:22.341Z,14.70
2022-11-29T04:29:12.760Z,12.90
2022-11-29T04:32:02.622Z,13.80
2022-11-29T04:34:57.288Z,13.30
2022-11-29T04:37:44.408Z,12.60
2022-11-29T04:40:29.141Z,11.90
2022-11-29T04:43:11.454Z,12.50
2022-11-29T04:45:59.819Z,12.20
2022-11-29T04:48:44.056Z,12.70
2022-11-29T04:51:22.749Z,14.40
2022-11-29T04:53:56.578Z,14.90
2022-11-29T04:56:32.477Z,14.80
2022-11-29T04:59:07.058Z,15.30
2022-11-29T05:01:47.833Z,15.10
2022-11-29T05:04:22.474Z,14.80
2022-11-29T05:07:04.889Z,15.70
2022-11-29T05:09:43.207Z,15.00
2022-11-29T05:12:21.956Z,14.70
2022-11-29T05:15:10.891Z,14.30
2022-11-29T05:17:48.675Z,15.30
2022-11-29T05:20:27.415Z,14.60
2022-11-29T05:23:12.196Z,13.90
2022-11-29T05:25:49.441Z,12.90
2022-11-29T05:28:25.512Z,13.10
2022-11-29T05:44:08.619Z,13.00
2022-11-29T05:46:46.572Z,14.10
2022-11-29T05:49:23.252Z,14.10
2022-11-29T05:52:01.222Z,12.10
2022-11-29T05:54:34.323Z,11.80
2022-11-29T05:57:11.797Z,11.80
2022-11-29T05:59:44.194Z,11.10
2022-11-29T06:02:24.014Z,10.90
2022-11-29T06:05:07.713Z,11.40
2022-11-29T06:07:42.155Z,11.00
2022-11-29T06:10:17.738Z,9.80
2022-11-29T06:12:54.883Z,11.00
2022-11-29T06:15:35.587Z,10.70
2022-11-29T06:18:17.826Z,10.50
2022-11-29T06:21:16.988Z,11.20
2022-11-29T06:23:58.842Z,12.80
2022-11-29T06:26:41.094Z,11.20
2022-11-29T06:29:25.195Z,13.20
2022-11-29T06:32:01.117Z,13.10
2022-11-29T06:34:36.977Z,13.90
2022-11-29T06:37:13.631Z,13.80
2022-11-29T06:39:44.709Z,14.30
2022-11-29T06:42:15.117Z,14.20
2022-11-29T06:44:49.493Z,13.80
2022-11-29T06:47:26.492Z,13.80
2022-11-29T06:50:02.547Z,14.30
2022-11-29T06:52:38.802Z,14.90
2022-11-29T06:55:16.303Z,15.90
2022-11-29T06:58:00.771Z,16.30
2022-11-29T07:00:37.696Z,13.70
2022-11-29T07:03:25.182Z,14.20
2022-11-29T07:05:56.389Z,15.60
2022-11-29T07:08:27.937Z,12.50
2022-11-29T07:11:00.443Z,12.40
2022-11-29T07:13:31.863Z,15.00
2022-11-29T07:16:07.909Z,13.40
2022-11-29T07:18:44.632Z,14.50
2022-11-29T07:21:27.906Z,15.20
2022-11-29T07:26:34.165Z,14.00
2022-11-29T07:29:17.261Z,13.80
2022-11-29T07:31:59.486Z,15.80
2022-11-29T07:34:36.228Z,15.00
2022-11-29T07:37:11.966Z,14.70
2022-11-29T07:39:47.592Z,15.80
2022-11-29T07:42:23.583Z,15.60
2022-11-29T07:45:00.410Z,15.50
2022-11-29T07:47:35.589Z,16.70
2022-11-29T07:50:07.627Z,15.60
2022-11-29T07:52:38.365Z,16.40
2022-11-29T07:55:18.293Z,16.00
2022-11-29T07:57:49.396Z,18.50
2022-11-29T08:00:21.696Z,15.50
2022-11-29T08:02:52.692Z,15.60
2022-11-29T08:05:23.950Z,14.20
2022-11-29T08:07:55.880Z,15.70
2022-11-29T08:10:26.587Z,15.60
2022-11-29T08:12:56.988Z,15.40
2022-11-29T08:15:28.024Z,14.00
2022-11-29T08:17:58.534Z,14.00
2022-11-29T08:20:28.966Z,13.40
2022-11-29T08:23:00.311Z,14.70
2022-11-29T08:25:31.304Z,14.80
2022-11-29T08:28:02.141Z,13.80
2022-11-29T08:30:33.118Z,15.30
2022-11-29T08:33:03.861Z,13.50
2022-11-29T08:35:35.351Z,15.40
2022-11-29T08:38:06.799Z,14.40
2022-11-29T08:40:37.245Z,15.80
2022-11-29T08:43:07.876Z,15.10
2022-11-29T08:45:38.682Z,15.60
2022-11-29T08:48:14.497Z,17.30
2022-11-29T08:50:44.954Z,20.20
2022-11-29T08:53:33.107Z,16.80
2022-11-29T08:56:23.471Z,15.50
2022-11-29T08:58:54.472Z,15.30
2022-11-29T09:01:25.111Z,16.90
2022-11-29T09:04:02.863Z,14.90
2022-11-29T09:09:40.988Z,14.50
2022-11-29T09:12:11.413Z,13.80
2022-11-29T09:14:42.013Z,15.80
2022-11-29T09:17:12.593Z,13.70
2022-11-29T09:19:43.002Z,13.50
2022-11-29T09:22:13.450Z,14.50
2022-11-29T09:24:44.586Z,16.00
2022-11-29T09:27:15.226Z,15.40
2022-11-29T09:29:45.662Z,16.00
2022-11-29T09:32:16.616Z,17.50
2022-11-29T09:34:47.506Z,16.30
2022-11-29T09:37:18.383Z,15.80
2022-11-29T09:39:49.077Z,15.90
2022-11-29T09:42:32.333Z,16.50
2022-11-29T09:47:45.931Z,16.60
2022-11-29T09:50:24.603Z,15.50
2022-11-29T09:53:04.281Z,15.90
2022-11-29T09:55:43.939Z,16.20
2022-11-29T09:58:16.947Z,17.30
2022-11-29T10:03:25.330Z,15.90
2022-11-29T10:06:07.638Z,14.00
2022-11-29T10:08:41.908Z,16.10
2022-11-29T10:11:22.241Z,16.60
2022-11-29T10:13:54.957Z,15.90
2022-11-29T10:16:29.708Z,16.00
2022-11-29T10:19:08.149Z,16.70
2022-11-29T10:21:41.662Z,15.80
2022-11-29T10:24:17.891Z,15.90
2022-11-29T10:26:48.663Z,15.80
2022-11-29T10:29:19.593Z,16.50
2022-11-29T10:31:50.533Z,16.90
2022-11-29T10:34:23.402Z,18.00
2022-11-29T10:36:58.637Z,17.90
2022-11-29T10:39:39.763Z,15.70
2022-11-29T10:42:30.424Z,14.70
2022-11-29T10:45:01.788Z,13.80
2022-11-29T10:47:32.683Z,17.90
2022-11-29T10:50:03.382Z,17.20
2022-11-29T10:52:34.852Z,17.90
2022-11-29T10:55:05.823Z,16.10
2022-11-29T10:57:36.558Z,17.00
2022-11-29T11:00:10.358Z,17.90
2022-11-29T11:02:41.550Z,17.40
2022-11-29T11:05:19.345Z,18.20
2022-11-29T11:07:58.285Z,17.60
2022-11-29T11:10:30.848Z,17.10
2022-11-29T11:13:06.716Z,19.60
2022-11-29T11:15:38.039Z,19.60
2022-11-29T11:18:22.345Z,17.50
2022-11-29T11:20:57.514Z,18.70
2022-11-29T11:23:30.139Z,15.40
2022-11-29T11:26:02.728Z,17.60
2022-11-29T11:28:35.839Z,16.50
2022-11-29T11:31:10.892Z,18.30
2022-11-29T11:33:42.322Z,17.20
2022-11-29T11:36:15.341Z,18.20
2022-11-29T11:38:53.663Z,17.50
2022-11-29T11:41:48.594Z,17.70
2022-11-29T11:44:58.554Z,16.70
2022-11-29T11:47:25.255Z,18.00
2022-11-29T11:50:06.767Z,19.20
2022-11-29T11:52:50.127Z,18.30
2022-11-29T11:55:33.133Z,17.30
2022-11-29T11:58:10.219Z,17.00
2022-11-29T12:03:39.396Z,19.20
2022-11-29T12:06:35.932Z,18.50
2022-11-29T12:09:13.200Z,17.10
2022-11-29T12:11:48.555Z,15.50
2022-11-29T12:14:24.574Z,16.00
2022-11-29T12:17:03.047Z,16.40
2022-11-29T12:19:39.525Z,16.70
2022-11-29T12:22:17.121Z,15.40
2022-11-29T12:24:51.715Z,16.00
2022-11-29T12:27:22.180Z,13.80
2022-11-29T12:29:53.155Z,15.00
2022-11-29T12:32:37.418Z,15.90
2022-11-29T12:35:32.451Z,17.70
2022-11-29T12:38:09.088Z,16.50
2022-11-29T12:40:44.706Z,16.00
2022-11-29T12:43:22.830Z,18.60
2022-11-29T12:46:01.360Z,17.20
2022-11-29T12:48:39.229Z,17.90
2022-11-29T12:51:14.263Z,16.60
2022-11-29T12:53:53.446Z,15.50
2022-11-29T12:56:27.097Z,15.60
2022-11-29T12:59:09.437Z,15.70
2022-11-29T13:01:51.112Z,16.10
2022-11-29T13:04:26.866Z,15.60
2022-11-29T13:07:00.582Z,16.30
2022-11-29T13:09:49.895Z,15.10
2022-11-29T13:12:24.697Z,15.80
2022-11-29T13:15:02.671Z,17.30
2022-11-29T13:17:39.048Z,15.80
2022-11-29T13:20:20.115Z,17.40
2022-11-29T13:22:54.424Z,17.40
2022-11-29T13:25:28.023Z,15.20
2022-11-29T13:28:01.591Z,17.40
2022-11-29T13:30:32.499Z,17.50
2022-11-29T13:33:06.737Z,17.50
2022-11-29T13:35:43.041Z,18.10
2022-11-29T13:38:22.788Z,15.60
2022-11-29T13:41:00.943Z,15.10
2022-11-29T13:43:36.453Z,16.30
2022-11-29T13:46:15.422Z,15.20
2022-11-29T13:48:52.745Z,17.00
2022-11-29T13:51:34.693Z,15.40
2022-11-29T13:54:07.144Z,15.00
2022-11-29T13:56:46.550Z,15.70
2022-11-29T13:59:23.850Z,15.80
2022-11-29T14:01:55.337Z,15.70
2022-11-29T14:04:31.990Z,17.30
2022-11-29T14:07:08.107Z,15.30
2022-11-29T14:09:51.809Z,16.50
2022-11-29T14:12:35.850Z,16.20
2022-11-29T14:15:18.109Z,16.70
2022-11-29T14:17:54.251Z,17.70
2022-11-29T14:20:59.849Z,17.60
2022-11-29T14:23:50.313Z,16.70
2022-11-29T14:26:31.504Z,16.40
2022-11-29T14:29:02.345Z,16.40
2022-11-29T14:31:56.176Z,17.60
2022-11-29T14:34:40.658Z,16.80
2022-11-29T14:37:21.633Z,16.00
2022-11-29T14:39:55.007Z,16.70
2022-11-29T14:42:26.720Z,16.30
2022-11-29T14:45:01.305Z,17.90
2022-11-29T14:47:34.413Z,18.10
2022-11-29T14:50:09.137Z,17.40
2022-11-29T14:52:41.198Z,17.60
2022-11-29T14:55:32.398Z,16.50
2022-11-29T14:58:20.757Z,16.80
2022-11-29T15:01:10.099Z,14.90
2022-11-29T15:03:55.765Z,16.90
2022-11-29T15:06:28.345Z,17.40
2022-11-29T15:09:08.717Z,16.20
2022-11-29T15:11:53.128Z,15.00
2022-11-29T15:14:30.749Z,17.10
2022-11-29T15:17:24.789Z,17.70
2022-11-29T15:20:21.787Z,18.00
2022-11-29T15:22:53.763Z,16.40
2022-11-29T15:25:26.255Z,14.50
2022-11-29T15:27:58.448Z,15.40
2022-11-29T15:30:35.285Z,16.90
2022-11-29T15:33:07.877Z,14.90
2022-11-29T15:35:38.781Z,16.40
2022-11-29T15:38:12.248Z,14.80
2022-11-29T15:40:44.977Z,13.70
2022-11-29T15:45:50.679Z,14.40
2022-11-29T15:48:23.726Z,15.40
2022-11-29T15:53:28.480Z,15.30
2022-11-29T15:55:59.731Z,17.00
2022-11-29T15:58:32.330Z,15.10
2022-11-29T16:01:03.590Z,14.70
2022-11-29T16:03:35.816Z,14.10
2022-11-29T16:06:16.698Z,12.20
2022-11-29T16:08:47.619Z,10.80
2022-11-29T16:11:21.084Z,8.10
2022-11-29T16:14:17.844Z,5.60
2022-11-29T16:16:51.314Z,6.30
2022-11-29T16:19:36.862Z,4.80
2022-11-29T16:22:19.204Z,4.80
2022-11-29T16:25:00.881Z,4.50
2022-11-29T16:27:34.569Z,5.40
2022-11-29T16:30:06.734Z,11.90
2022-11-29T16:32:39.037Z,14.60
2022-11-29T16:35:14.183Z,14.90
2022-11-29T16:37:46.335Z,13.30
2022-11-29T16:40:24.544Z,14.00
2022-11-29T16:43:19.286Z,13.30
2022-11-29T16:45:50.425Z,15.30
2022-11-29T16:48:37.981Z,13.70
2022-11-29T16:51:27.187Z,14.20
2022-11-29T16:53:57.643Z,13.70
2022-11-29T16:56:30.222Z,13.80
2022-11-29T16:59:21.081Z,14.70
2022-11-29T17:01:58.426Z,14.00
2022-11-29T17:04:29.176Z,15.00
2022-11-29T17:06:59.896Z,17.50
2022-11-29T17:09:34.950Z,18.50
2022-11-29T17:12:05.789Z,16.70
2022-11-29T17:14:36.398Z,16.60
2022-11-29T17:17:06.988Z,14.60
2022-11-29T17:19:37.844Z,19.00
2022-11-29T17:22:08.371Z,23.20
2022-11-29T17:24:46.218Z,22.60
2022-11-29T17:27:18.515Z,22.70
2022-11-29T17:29:49.064Z,19.20
2022-11-29T17:32:24.914Z,17.70
2022-11-29T17:34:57.133Z,13.70
2022-11-29T17:37:27.548Z,11.80
2022-11-29T17:39:58.153Z,9.70
2022-11-29T17:42:28.574Z,6.90
2022-11-29T17:44:58.939Z,6.80
2022-11-29T17:47:32.516Z,5.90
2022-11-29T17:50:03.160Z,13.10
2022-11-29T17:52:34.079Z,13.30
2022-11-29T17:55:04.750Z,11.60
2022-11-29T17:57:35.738Z,7.80
2022-11-29T18:00:08.812Z,6.00
2022-11-29T18:05:10.196Z,6.10
2022-11-29T18:07:57.940Z,8.40
2022-11-29T18:10:29.232Z,18.00
2022-11-29T18:12:59.787Z,20.70
2022-11-29T18:15:30.214Z,18.50
2022-11-29T18:18:00.748Z,17.10
2022-11-29T18:20:33.061Z,16.50
2022-11-29T18:23:07.795Z,18.90
2022-11-29T18:25:39.842Z,18.10
2022-11-29T18:28:11.606Z,17.80
2022-11-29T18:30:42.245Z,15.20
2022-11-29T18:33:12.660Z,18.70
2022-11-29T18:35:43.157Z,17.00
2022-11-29T18:38:15.731Z,16.90
2022-11-29T18:40:47.540Z,16.60
2022-11-29T18:43:22.006Z,15.40
2022-11-29T18:46:06.365Z,13.70
2022-11-29T18:48:40.550Z,15.10
2022-11-29T18:51:14.018Z,13.80
2022-11-29T18:53:50.516Z,13.30
2022-11-29T18:56:22.675Z,14.00
2022-11-29T19:01:30.874Z,12.50
2022-11-29T19:04:12.463Z,12.10
2022-11-29T19:06:43.602Z,12.00
2022-11-29T19:09:16.616Z,13.10
2022-11-29T19:14:16.362Z,13.80
2022-11-29T19:16:49.932Z,13.60
2022-11-29T19:19:21.670Z,13.40
2022-11-29T19:21:52.657Z,12.70
2022-11-29T19:24:23.183Z,14.00
2022-11-29T19:26:55.766Z,12.70
2022-11-29T19:29:26.419Z,13.90
2022-11-29T19:31:58.010Z,13.60
2022-11-29T19:34:32.883Z,12.00
2022-11-29T19:37:03.693Z,13.90
2022-11-29T19:39:38.118Z,13.70
2022-11-29T19:42:09.038Z,12.70
2022-11-29T19:45:14.963Z,13.40
2022-11-29T19:47:33.447Z,12.00
2022-11-29T19:50:05.263Z,12.10
2022-11-29T19:52:36.409Z,12.80
2022-11-29T19:55:10.448Z,11.80
2022-11-29T19:57:44.399Z,12.00
2022-11-29T20:00:17.837Z,11.20
2022-11-29T20:02:48.482Z,12.80
2022-11-29T20:05:22.159Z,13.20
2022-11-29T20:07:57.597Z,12.60
2022-11-29T20:10:28.811Z,12.90
2022-11-29T20:13:04.669Z,12.10
2022-11-29T20:15:36.059Z,12.90
2022-11-29T20:18:11.175Z,13.30
2022-11-29T20:20:42.560Z,12.70
2022-11-29T20:23:21.196Z,12.00
2022-11-29T20:25:59.846Z,13.70
2022-11-29T20:28:31.702Z,12.00
2022-11-29T20:31:09.042Z,11.60
2022-11-29T20:33:43.020Z,12.10
2022-11-29T20:36:30.233Z,10.80
2022-11-29T20:39:11.894Z,11.80
2022-11-29T20:41:50.878Z,11.30
2022-11-29T20:44:25.610Z,12.10
2022-11-29T20:46:57.905Z,11.30
2022-11-29T20:49:33.968Z,10.90
2022-11-29T20:52:12.884Z,8.90
2022-11-29T20:54:49.922Z,8.60
2022-11-29T20:57:22.914Z,8.40
2022-11-29T20:59:57.085Z,8.30
2022-11-29T21:02:29.079Z,9.30
2022-11-29T21:11:10.446Z,8.70
2022-11-29T21:13:42.248Z,8.60
2022-11-29T21:16:15.624Z,9.70
2022-11-29T21:18:48.489Z,8.80
2022-11-29T21:21:26.098Z,9.50
2022-11-29T21:24:04.059Z,7.80
2022-11-29T21:26:41.522Z,9.20
2022-11-29T21:29:18.198Z,8.30
2022-11-29T21:31:57.170Z,8.40
2022-11-29T21:34:27.592Z,7.80
2022-11-29T21:36:59.545Z,8.60
2022-11-29T21:39:34.149Z,8.30
2022-11-29T21:42:05.361Z,7.50
2022-11-29T21:44:36.675Z,8.10
2022-11-29T21:47:07.310Z,8.30
2022-11-29T21:49:38.066Z,9.10
2022-11-29T21:52:08.807Z,9.70
2022-11-29T21:54:40.330Z,8.90
2022-11-29T21:57:10.789Z,8.50
2022-11-29T21:59:41.296Z,8.20
2022-11-29T22:02:11.868Z,7.40
2022-11-29T22:04:42.518Z,8.40
2022-11-29T22:07:13.019Z,6.70
2022-11-29T22:09:43.564Z,7.70
2022-11-29T22:12:32.936Z,7.60
2022-11-29T22:15:04.518Z,7.70
2022-11-29T22:17:35.135Z,9.90
2022-11-29T22:20:06.739Z,15.10
2022-11-29T22:22:37.370Z,8.30
2022-11-29T22:25:08.762Z,9.60
2022-11-29T22:27:39.297Z,8.90
2022-11-29T22:30:11.332Z,7.10
2022-11-29T22:32:41.712Z,6.30
2022-11-29T22:35:12.551Z,7.30
2022-11-29T22:37:43.007Z,6.90
2022-11-29T22:40:15.301Z,5.90
2022-11-29T22:42:45.788Z,5.90
2022-11-29T22:45:16.636Z,5.40
2022-11-29T22:47:47.274Z,5.80
2022-11-29T22:50:17.940Z,5.70
2022-11-29T22:52:48.671Z,5.20
2022-11-29T22:55:19.299Z,6.10
2022-11-29T22:57:51.650Z,6.30
2022-11-29T23:00:22.624Z,6.20
2022-11-29T23:02:53.187Z,6.20
2022-11-29T23:05:24.413Z,5.30
2022-11-29T23:08:00.683Z,5.10
2022-11-29T23:10:31.286Z,5.00
2022-11-29T23:13:02.903Z,6.20
2022-11-29T23:15:33.563Z,6.30
2022-11-29T23:18:04.461Z,6.80
2022-11-29T23:20:34.741Z,6.30
2022-11-29T23:28:38.774Z,6.60
2022-11-29T23:31:09.346Z,7.20
2022-11-29T23:33:39.966Z,7.70
2022-11-29T23:36:13.342Z,7.80
2022-11-29T23:38:44.729Z,7.30
2022-11-29T23:41:15.591Z,7.50
2022-11-29T23:43:46.388Z,7.40
2022-11-29T23:46:19.052Z,8.00
2022-11-29T23:48:50.030Z,8.00
2022-11-29T23:51:23.772Z,7.70
2022-11-29T23:53:55.089Z,7.70
2022-11-29T23:56:25.810Z,7.30
2022-11-29T23:58:56.185Z,7.00
